sensor_id;sensor_type;location;lat;lon;timestamp;P1;durP1;ratioP1;P2;durP2;ratioP2
735;SDS011;352;48.626;9.238;2023-07-30T00:00:58;6.63;;;4.43;;
735;SDS011;352;48.626;9.238;2023-07-30T00:03:25;6.20;;;4.80;;
735;SDS011;352;48.626;9.238;2023-07-30T00:05:52;6.10;;;4.70;;
735;SDS011;352;48.626;9.238;2023-07-30T00:08:21;5.40;;;4.63;;
735;SDS011;352;48.626;9.238;2023-07-30T00:10:48;5.10;;;4.33;;
735;SDS011;352;48.626;9.238;2023-07-30T00:13:15;5.37;;;4.87;;
735;SDS011;352;48.626;9.238;2023-07-30T00:15:42;5.07;;;4.63;;
735;SDS011;352;48.626;9.238;2023-07-30T00:18:09;5.23;;;4.73;;
735;SDS011;352;48.626;9.238;2023-07-30T00:20:35;5.63;;;4.70;;
735;SDS011;352;48.626;9.238;2023-07-30T00:23:02;5.63;;;4.77;;
735;SDS011;352;48.626;9.238;2023-07-30T00:25:30;5.03;;;4.50;;
735;SDS011;352;48.626;9.238;2023-07-30T00:27:57;6.63;;;4.60;;
735;SDS011;352;48.626;9.238;2023-07-30T00:30:24;8.07;;;5.20;;
735;SDS011;352;48.626;9.238;2023-07-30T00:32:50;7.00;;;4.77;;
735;SDS011;352;48.626;9.238;2023-07-30T00:35:17;4.80;;;4.40;;
735;SDS011;352;48.626;9.238;2023-07-30T00:37:44;4.70;;;4.40;;
735;SDS011;352;48.626;9.238;2023-07-30T00:40:11;5.03;;;4.53;;
735;SDS011;352;48.626;9.238;2023-07-30T00:42:39;4.43;;;4.03;;
735;SDS011;352;48.626;9.238;2023-07-30T00:45:07;4.77;;;4.37;;
735;SDS011;352;48.626;9.238;2023-07-30T00:47:34;3.93;;;3.63;;
735;SDS011;352;48.626;9.238;2023-07-30T00:50:03;5.00;;;4.60;;
735;SDS011;352;48.626;9.238;2023-07-30T00:52:30;5.03;;;4.33;;
735;SDS011;352;48.626;9.238;2023-07-30T00:54:59;5.50;;;4.50;;
735;SDS011;352;48.626;9.238;2023-07-30T00:57:28;4.37;;;3.90;;
735;SDS011;352;48.626;9.238;2023-07-30T00:59:58;4.70;;;4.30;;
735;SDS011;352;48.626;9.238;2023-07-30T01:02:24;4.90;;;4.50;;
735;SDS011;352;48.626;9.238;2023-07-30T01:04:52;5.90;;;4.53;;
735;SDS011;352;48.626;9.238;2023-07-30T01:07:19;4.23;;;3.83;;
735;SDS011;352;48.626;9.238;2023-07-30T01:09:46;4.60;;;4.20;;
735;SDS011;352;48.626;9.238;2023-07-30T01:12:12;4.67;;;4.17;;
735;SDS011;352;48.626;9.238;2023-07-30T01:14:40;3.97;;;3.50;;
735;SDS011;352;48.626;9.238;2023-07-30T01:17:09;4.70;;;4.30;;
735;SDS011;352;48.626;9.238;2023-07-30T01:19:36;4.43;;;3.67;;
735;SDS011;352;48.626;9.238;2023-07-30T01:22:04;5.70;;;3.40;;
735;SDS011;352;48.626;9.238;2023-07-30T01:24:31;4.10;;;3.30;;
735;SDS011;352;48.626;9.238;2023-07-30T01:26:59;6.13;;;3.80;;
735;SDS011;352;48.626;9.238;2023-07-30T01:29:32;3.90;;;3.50;;
735;SDS011;352;48.626;9.238;2023-07-30T01:32:05;3.73;;;3.43;;
735;SDS011;352;48.626;9.238;2023-07-30T01:34:34;6.80;;;3.97;;
735;SDS011;352;48.626;9.238;2023-07-30T01:37:02;4.83;;;3.33;;
735;SDS011;352;48.626;9.238;2023-07-30T01:39:34;3.60;;;3.30;;
735;SDS011;352;48.626;9.238;2023-07-30T01:42:04;3.40;;;3.10;;
735;SDS011;352;48.626;9.238;2023-07-30T01:44:31;6.63;;;3.87;;
735;SDS011;352;48.626;9.238;2023-07-30T01:46:57;4.10;;;3.70;;
735;SDS011;352;48.626;9.238;2023-07-30T01:49:24;4.57;;;3.57;;
735;SDS011;352;48.626;9.238;2023-07-30T01:51:51;7.07;;;3.90;;
735;SDS011;352;48.626;9.238;2023-07-30T01:54:19;3.77;;;3.30;;
735;SDS011;352;48.626;9.238;2023-07-30T01:56:45;3.90;;;3.57;;
735;SDS011;352;48.626;9.238;2023-07-30T01:59:12;11.10;;;4.67;;
735;SDS011;352;48.626;9.238;2023-07-30T02:01:39;4.70;;;4.13;;
735;SDS011;352;48.626;9.238;2023-07-30T02:04:06;4.20;;;3.80;;
735;SDS011;352;48.626;9.238;2023-07-30T02:06:33;4.10;;;3.37;;
735;SDS011;352;48.626;9.238;2023-07-30T02:08:59;3.70;;;3.40;;
735;SDS011;352;48.626;9.238;2023-07-30T02:11:28;3.83;;;3.53;;
735;SDS011;352;48.626;9.238;2023-07-30T02:13:54;3.90;;;3.40;;
735;SDS011;352;48.626;9.238;2023-07-30T02:16:21;4.07;;;3.77;;
735;SDS011;352;48.626;9.238;2023-07-30T02:18:48;4.17;;;3.77;;
735;SDS011;352;48.626;9.238;2023-07-30T02:21:14;4.33;;;3.80;;
735;SDS011;352;48.626;9.238;2023-07-30T02:23:41;4.10;;;3.60;;
735;SDS011;352;48.626;9.238;2023-07-30T02:26:08;4.20;;;3.80;;
735;SDS011;352;48.626;9.238;2023-07-30T02:28:36;4.70;;;4.10;;
735;SDS011;352;48.626;9.238;2023-07-30T02:31:02;11.83;;;4.20;;
735;SDS011;352;48.626;9.238;2023-07-30T02:33:29;4.30;;;3.70;;
735;SDS011;352;48.626;9.238;2023-07-30T02:35:56;4.23;;;3.90;;
735;SDS011;352;48.626;9.238;2023-07-30T02:38:22;5.70;;;3.97;;
735;SDS011;352;48.626;9.238;2023-07-30T02:40:49;4.10;;;3.50;;
735;SDS011;352;48.626;9.238;2023-07-30T02:43:16;3.90;;;3.60;;
735;SDS011;352;48.626;9.238;2023-07-30T02:45:44;4.00;;;3.70;;
735;SDS011;352;48.626;9.238;2023-07-30T02:48:13;4.33;;;3.93;;
735;SDS011;352;48.626;9.238;2023-07-30T02:50:40;4.23;;;3.73;;
735;SDS011;352;48.626;9.238;2023-07-30T02:53:06;5.20;;;3.27;;
735;SDS011;352;48.626;9.238;2023-07-30T02:55:33;3.63;;;3.33;;
735;SDS011;352;48.626;9.238;2023-07-30T02:58:00;3.97;;;3.53;;
735;SDS011;352;48.626;9.238;2023-07-30T03:00:26;4.73;;;3.67;;
735;SDS011;352;48.626;9.238;2023-07-30T03:02:55;4.30;;;3.60;;
735;SDS011;352;48.626;9.238;2023-07-30T03:05:22;6.13;;;3.90;;
735;SDS011;352;48.626;9.238;2023-07-30T03:07:49;4.07;;;3.67;;
735;SDS011;352;48.626;9.238;2023-07-30T03:10:15;4.27;;;3.87;;
735;SDS011;352;48.626;9.238;2023-07-30T03:12:42;3.43;;;3.13;;
735;SDS011;352;48.626;9.238;2023-07-30T03:15:09;3.37;;;3.07;;
735;SDS011;352;48.626;9.238;2023-07-30T03:17:36;3.83;;;3.53;;
735;SDS011;352;48.626;9.238;2023-07-30T03:20:04;3.90;;;3.20;;
735;SDS011;352;48.626;9.238;2023-07-30T03:22:32;4.63;;;4.23;;
735;SDS011;352;48.626;9.238;2023-07-30T03:24:59;4.33;;;3.93;;
735;SDS011;352;48.626;9.238;2023-07-30T03:27:25;4.23;;;3.53;;
735;SDS011;352;48.626;9.238;2023-07-30T03:29:52;8.10;;;3.80;;
735;SDS011;352;48.626;9.238;2023-07-30T03:32:19;4.13;;;3.77;;
735;SDS011;352;48.626;9.238;2023-07-30T03:34:45;5.03;;;3.90;;
735;SDS011;352;48.626;9.238;2023-07-30T03:37:13;4.00;;;3.60;;
735;SDS011;352;48.626;9.238;2023-07-30T03:39:40;6.97;;;4.03;;
735;SDS011;352;48.626;9.238;2023-07-30T03:42:07;4.63;;;3.97;;
735;SDS011;352;48.626;9.238;2023-07-30T03:44:33;4.30;;;3.90;;
735;SDS011;352;48.626;9.238;2023-07-30T03:47:00;4.40;;;4.00;;
735;SDS011;352;48.626;9.238;2023-07-30T03:49:27;8.17;;;4.83;;
735;SDS011;352;48.626;9.238;2023-07-30T03:51:53;6.23;;;4.10;;
735;SDS011;352;48.626;9.238;2023-07-30T03:54:21;4.67;;;3.70;;
735;SDS011;352;48.626;9.238;2023-07-30T03:56:48;4.00;;;3.70;;
735;SDS011;352;48.626;9.238;2023-07-30T03:59:15;9.83;;;4.60;;
735;SDS011;352;48.626;9.238;2023-07-30T04:01:42;3.80;;;3.50;;
735;SDS011;352;48.626;9.238;2023-07-30T04:04:08;4.60;;;4.20;;
735;SDS011;352;48.626;9.238;2023-07-30T04:06:35;3.93;;;3.63;;
735;SDS011;352;48.626;9.238;2023-07-30T04:09:02;4.00;;;3.70;;
735;SDS011;352;48.626;9.238;2023-07-30T04:11:30;4.90;;;4.40;;
735;SDS011;352;48.626;9.238;2023-07-30T04:13:56;3.83;;;3.53;;
735;SDS011;352;48.626;9.238;2023-07-30T04:16:23;3.87;;;3.57;;
735;SDS011;352;48.626;9.238;2023-07-30T04:18:50;4.43;;;3.40;;
735;SDS011;352;48.626;9.238;2023-07-30T04:21:16;4.93;;;4.03;;
735;SDS011;352;48.626;9.238;2023-07-30T04:23:43;4.77;;;4.37;;
735;SDS011;352;48.626;9.238;2023-07-30T04:26:10;4.80;;;3.83;;
735;SDS011;352;48.626;9.238;2023-07-30T04:28:38;3.80;;;3.40;;
735;SDS011;352;48.626;9.238;2023-07-30T04:31:04;4.37;;;4.00;;
735;SDS011;352;48.626;9.238;2023-07-30T04:33:32;6.37;;;4.17;;
735;SDS011;352;48.626;9.238;2023-07-30T04:35:59;4.57;;;4.17;;
735;SDS011;352;48.626;9.238;2023-07-30T04:38:25;4.33;;;3.93;;
735;SDS011;352;48.626;9.238;2023-07-30T04:40:52;3.97;;;3.67;;
735;SDS011;352;48.626;9.238;2023-07-30T04:43:19;5.37;;;4.07;;
735;SDS011;352;48.626;9.238;2023-07-30T04:45:47;3.80;;;3.50;;
735;SDS011;352;48.626;9.238;2023-07-30T04:48:13;4.00;;;3.60;;
735;SDS011;352;48.626;9.238;2023-07-30T04:50:40;4.17;;;3.83;;
735;SDS011;352;48.626;9.238;2023-07-30T04:53:07;5.77;;;3.73;;
735;SDS011;352;48.626;9.238;2023-07-30T04:55:34;5.10;;;3.70;;
735;SDS011;352;48.626;9.238;2023-07-30T04:58:01;3.80;;;3.50;;
735;SDS011;352;48.626;9.238;2023-07-30T05:00:28;4.27;;;3.87;;
735;SDS011;352;48.626;9.238;2023-07-30T05:02:56;6.23;;;3.97;;
735;SDS011;352;48.626;9.238;2023-07-30T05:05:23;4.17;;;3.87;;
735;SDS011;352;48.626;9.238;2023-07-30T05:07:50;4.43;;;4.03;;
735;SDS011;352;48.626;9.238;2023-07-30T05:10:16;3.60;;;3.30;;
735;SDS011;352;48.626;9.238;2023-07-30T05:12:43;3.87;;;3.47;;
735;SDS011;352;48.626;9.238;2023-07-30T05:15:10;4.30;;;3.90;;
735;SDS011;352;48.626;9.238;2023-07-30T05:17:36;3.60;;;3.30;;
735;SDS011;352;48.626;9.238;2023-07-30T05:20:05;3.67;;;3.37;;
735;SDS011;352;48.626;9.238;2023-07-30T05:22:33;3.97;;;3.50;;
735;SDS011;352;48.626;9.238;2023-07-30T05:24:59;4.43;;;4.07;;
735;SDS011;352;48.626;9.238;2023-07-30T05:27:26;4.07;;;3.70;;
735;SDS011;352;48.626;9.238;2023-07-30T05:29:54;4.63;;;4.20;;
735;SDS011;352;48.626;9.238;2023-07-30T05:32:20;4.83;;;3.60;;
735;SDS011;352;48.626;9.238;2023-07-30T05:34:47;6.50;;;3.57;;
735;SDS011;352;48.626;9.238;2023-07-30T05:37:15;3.70;;;3.50;;
735;SDS011;352;48.626;9.238;2023-07-30T05:39:42;3.97;;;3.57;;
735;SDS011;352;48.626;9.238;2023-07-30T05:42:09;4.63;;;3.50;;
735;SDS011;352;48.626;9.238;2023-07-30T05:44:35;4.47;;;3.60;;
735;SDS011;352;48.626;9.238;2023-07-30T05:47:02;5.57;;;3.70;;
735;SDS011;352;48.626;9.238;2023-07-30T05:49:29;3.33;;;3.03;;
735;SDS011;352;48.626;9.238;2023-07-30T05:51:56;5.10;;;3.37;;
735;SDS011;352;48.626;9.238;2023-07-30T05:54:24;4.30;;;3.20;;
735;SDS011;352;48.626;9.238;2023-07-30T05:56:51;4.00;;;3.47;;
735;SDS011;352;48.626;9.238;2023-07-30T05:59:18;9.33;;;4.87;;
735;SDS011;352;48.626;9.238;2023-07-30T06:01:45;3.63;;;3.30;;
735;SDS011;352;48.626;9.238;2023-07-30T06:04:12;4.07;;;3.77;;
735;SDS011;352;48.626;9.238;2023-07-30T06:06:39;5.10;;;3.17;;
735;SDS011;352;48.626;9.238;2023-07-30T06:09:05;4.13;;;3.33;;
735;SDS011;352;48.626;9.238;2023-07-30T06:11:34;3.63;;;3.33;;
735;SDS011;352;48.626;9.238;2023-07-30T06:14:00;3.63;;;3.33;;
735;SDS011;352;48.626;9.238;2023-07-30T06:16:27;4.67;;;3.27;;
735;SDS011;352;48.626;9.238;2023-07-30T06:18:54;3.80;;;3.50;;
735;SDS011;352;48.626;9.238;2023-07-30T06:21:20;3.10;;;2.80;;
735;SDS011;352;48.626;9.238;2023-07-30T06:23:47;4.47;;;3.40;;
735;SDS011;352;48.626;9.238;2023-07-30T06:26:14;4.10;;;3.20;;
735;SDS011;352;48.626;9.238;2023-07-30T06:28:42;3.20;;;2.90;;
735;SDS011;352;48.626;9.238;2023-07-30T06:31:09;6.50;;;3.30;;
735;SDS011;352;48.626;9.238;2023-07-30T06:33:35;4.23;;;3.27;;
735;SDS011;352;48.626;9.238;2023-07-30T06:36:02;5.37;;;2.90;;
735;SDS011;352;48.626;9.238;2023-07-30T06:38:29;3.40;;;2.60;;
735;SDS011;352;48.626;9.238;2023-07-30T06:40:56;2.67;;;2.47;;
735;SDS011;352;48.626;9.238;2023-07-30T06:43:23;4.60;;;2.70;;
735;SDS011;352;48.626;9.238;2023-07-30T06:45:51;3.33;;;2.23;;
735;SDS011;352;48.626;9.238;2023-07-30T06:48:18;3.33;;;2.90;;
735;SDS011;352;48.626;9.238;2023-07-30T06:50:45;3.33;;;3.00;;
735;SDS011;352;48.626;9.238;2023-07-30T06:53:12;3.57;;;2.80;;
735;SDS011;352;48.626;9.238;2023-07-30T06:55:39;3.37;;;3.07;;
735;SDS011;352;48.626;9.238;2023-07-30T06:58:05;3.13;;;2.40;;
735;SDS011;352;48.626;9.238;2023-07-30T07:00:32;3.33;;;2.43;;
735;SDS011;352;48.626;9.238;2023-07-30T07:03:00;3.23;;;2.47;;
735;SDS011;352;48.626;9.238;2023-07-30T07:05:27;2.67;;;2.47;;
735;SDS011;352;48.626;9.238;2023-07-30T07:07:53;2.70;;;2.50;;
735;SDS011;352;48.626;9.238;2023-07-30T07:10:20;2.60;;;2.40;;
735;SDS011;352;48.626;9.238;2023-07-30T07:12:47;2.83;;;2.53;;
735;SDS011;352;48.626;9.238;2023-07-30T07:15:14;3.93;;;2.77;;
735;SDS011;352;48.626;9.238;2023-07-30T07:17:41;3.90;;;2.83;;
735;SDS011;352;48.626;9.238;2023-07-30T07:20:10;3.83;;;2.80;;
735;SDS011;352;48.626;9.238;2023-07-30T07:22:37;3.73;;;3.20;;
735;SDS011;352;48.626;9.238;2023-07-30T07:25:04;4.73;;;3.80;;
735;SDS011;352;48.626;9.238;2023-07-30T07:27:31;3.73;;;3.23;;
735;SDS011;352;48.626;9.238;2023-07-30T07:29:58;4.77;;;3.43;;
735;SDS011;352;48.626;9.238;2023-07-30T07:32:25;5.20;;;3.30;;
735;SDS011;352;48.626;9.238;2023-07-30T07:34:52;5.23;;;3.27;;
735;SDS011;352;48.626;9.238;2023-07-30T07:37:21;3.50;;;2.40;;
735;SDS011;352;48.626;9.238;2023-07-30T07:39:48;4.83;;;3.73;;
735;SDS011;352;48.626;9.238;2023-07-30T07:42:15;9.83;;;7.93;;
735;SDS011;352;48.626;9.238;2023-07-30T07:44:42;7.30;;;6.60;;
735;SDS011;352;48.626;9.238;2023-07-30T07:47:11;4.43;;;2.97;;
735;SDS011;352;48.626;9.238;2023-07-30T07:49:38;4.77;;;2.73;;
735;SDS011;352;48.626;9.238;2023-07-30T07:52:05;2.97;;;2.50;;
735;SDS011;352;48.626;9.238;2023-07-30T07:54:34;4.97;;;3.00;;
735;SDS011;352;48.626;9.238;2023-07-30T07:57:01;3.30;;;2.50;;
735;SDS011;352;48.626;9.238;2023-07-30T07:59:28;2.97;;;2.50;;
735;SDS011;352;48.626;9.238;2023-07-30T08:01:55;4.30;;;3.20;;
735;SDS011;352;48.626;9.238;2023-07-30T08:04:21;3.47;;;2.60;;
735;SDS011;352;48.626;9.238;2023-07-30T08:06:48;2.50;;;2.27;;
735;SDS011;352;48.626;9.238;2023-07-30T08:09:15;13.20;;;4.70;;
735;SDS011;352;48.626;9.238;2023-07-30T08:11:43;2.23;;;2.03;;
735;SDS011;352;48.626;9.238;2023-07-30T08:14:10;3.10;;;2.37;;
735;SDS011;352;48.626;9.238;2023-07-30T08:16:37;4.60;;;2.53;;
735;SDS011;352;48.626;9.238;2023-07-30T08:19:04;3.70;;;2.20;;
735;SDS011;352;48.626;9.238;2023-07-30T08:21:30;5.67;;;4.07;;
735;SDS011;352;48.626;9.238;2023-07-30T08:23:57;2.83;;;2.23;;
735;SDS011;352;48.626;9.238;2023-07-30T08:26:24;3.30;;;2.20;;
735;SDS011;352;48.626;9.238;2023-07-30T08:28:55;3.77;;;2.67;;
735;SDS011;352;48.626;9.238;2023-07-30T08:31:21;4.27;;;2.63;;
735;SDS011;352;48.626;9.238;2023-07-30T08:33:48;5.53;;;3.30;;
735;SDS011;352;48.626;9.238;2023-07-30T08:36:15;4.30;;;2.37;;
735;SDS011;352;48.626;9.238;2023-07-30T08:38:42;4.67;;;2.60;;
735;SDS011;352;48.626;9.238;2023-07-30T08:41:09;4.53;;;2.73;;
735;SDS011;352;48.626;9.238;2023-07-30T08:43:36;5.60;;;2.73;;
735;SDS011;352;48.626;9.238;2023-07-30T08:46:05;4.43;;;2.70;;
735;SDS011;352;48.626;9.238;2023-07-30T08:48:32;4.00;;;2.43;;
735;SDS011;352;48.626;9.238;2023-07-30T08:50:59;4.13;;;2.63;;
735;SDS011;352;48.626;9.238;2023-07-30T08:53:26;4.60;;;2.30;;
735;SDS011;352;48.626;9.238;2023-07-30T08:55:53;5.07;;;3.00;;
735;SDS011;352;48.626;9.238;2023-07-30T08:58:20;5.00;;;2.80;;
735;SDS011;352;48.626;9.238;2023-07-30T09:00:49;3.57;;;2.60;;
735;SDS011;352;48.626;9.238;2023-07-30T09:03:18;4.57;;;2.53;;
735;SDS011;352;48.626;9.238;2023-07-30T09:05:46;4.50;;;2.40;;
735;SDS011;352;48.626;9.238;2023-07-30T09:08:13;4.17;;;2.47;;
735;SDS011;352;48.626;9.238;2023-07-30T09:10:40;4.00;;;2.67;;
735;SDS011;352;48.626;9.238;2023-07-30T09:13:07;2.90;;;2.10;;
735;SDS011;352;48.626;9.238;2023-07-30T09:15:34;3.70;;;2.50;;
735;SDS011;352;48.626;9.238;2023-07-30T09:18:03;3.50;;;2.23;;
735;SDS011;352;48.626;9.238;2023-07-30T09:20:37;2.40;;;2.17;;
735;SDS011;352;48.626;9.238;2023-07-30T09:23:04;2.40;;;2.03;;
735;SDS011;352;48.626;9.238;2023-07-30T09:25:32;2.20;;;1.87;;
735;SDS011;352;48.626;9.238;2023-07-30T09:27:58;1.80;;;1.60;;
735;SDS011;352;48.626;9.238;2023-07-30T09:30:25;1.67;;;1.57;;
735;SDS011;352;48.626;9.238;2023-07-30T09:32:53;3.27;;;2.47;;
735;SDS011;352;48.626;9.238;2023-07-30T09:35:21;1.70;;;1.60;;
735;SDS011;352;48.626;9.238;2023-07-30T09:37:57;2.30;;;2.10;;
735;SDS011;352;48.626;9.238;2023-07-30T09:40:30;3.10;;;1.97;;
735;SDS011;352;48.626;9.238;2023-07-30T09:42:58;2.37;;;2.17;;
735;SDS011;352;48.626;9.238;2023-07-30T09:45:25;4.20;;;2.23;;
735;SDS011;352;48.626;9.238;2023-07-30T09:47:53;2.77;;;2.20;;
735;SDS011;352;48.626;9.238;2023-07-30T09:50:22;2.73;;;2.53;;
735;SDS011;352;48.626;9.238;2023-07-30T09:52:49;2.40;;;2.20;;
735;SDS011;352;48.626;9.238;2023-07-30T09:55:17;2.23;;;1.90;;
735;SDS011;352;48.626;9.238;2023-07-30T09:57:44;4.00;;;2.60;;
735;SDS011;352;48.626;9.238;2023-07-30T10:00:12;2.73;;;2.20;;
735;SDS011;352;48.626;9.238;2023-07-30T10:02:40;4.77;;;2.30;;
735;SDS011;352;48.626;9.238;2023-07-30T10:05:08;2.47;;;1.90;;
735;SDS011;352;48.626;9.238;2023-07-30T10:07:38;2.33;;;2.00;;
735;SDS011;352;48.626;9.238;2023-07-30T10:10:10;3.90;;;2.20;;
735;SDS011;352;48.626;9.238;2023-07-30T10:12:39;2.60;;;2.07;;
735;SDS011;352;48.626;9.238;2023-07-30T10:15:07;2.80;;;1.90;;
735;SDS011;352;48.626;9.238;2023-07-30T10:17:34;5.33;;;3.00;;
735;SDS011;352;48.626;9.238;2023-07-30T10:20:20;4.17;;;2.70;;
735;SDS011;352;48.626;9.238;2023-07-30T10:22:50;3.93;;;2.40;;
735;SDS011;352;48.626;9.238;2023-07-30T10:25:20;2.87;;;2.53;;
735;SDS011;352;48.626;9.238;2023-07-30T10:27:49;3.00;;;2.43;;
735;SDS011;352;48.626;9.238;2023-07-30T10:30:16;2.67;;;2.37;;
735;SDS011;352;48.626;9.238;2023-07-30T10:32:57;2.40;;;2.20;;
735;SDS011;352;48.626;9.238;2023-07-30T10:35:35;2.90;;;2.40;;
735;SDS011;352;48.626;9.238;2023-07-30T10:38:17;3.03;;;2.67;;
735;SDS011;352;48.626;9.238;2023-07-30T10:41:01;2.87;;;2.63;;
735;SDS011;352;48.626;9.238;2023-07-30T10:43:33;2.73;;;2.53;;
735;SDS011;352;48.626;9.238;2023-07-30T10:46:01;3.20;;;2.90;;
735;SDS011;352;48.626;9.238;2023-07-30T10:48:32;2.67;;;2.47;;
735;SDS011;352;48.626;9.238;2023-07-30T10:51:00;4.37;;;2.30;;
735;SDS011;352;48.626;9.238;2023-07-30T10:53:28;3.30;;;3.00;;
735;SDS011;352;48.626;9.238;2023-07-30T10:55:57;3.80;;;2.97;;
735;SDS011;352;48.626;9.238;2023-07-30T10:58:25;2.80;;;2.60;;
735;SDS011;352;48.626;9.238;2023-07-30T11:00:54;3.17;;;2.90;;
735;SDS011;352;48.626;9.238;2023-07-30T11:03:22;4.87;;;3.33;;
735;SDS011;352;48.626;9.238;2023-07-30T11:05:51;3.20;;;3.00;;
735;SDS011;352;48.626;9.238;2023-07-30T11:08:17;3.50;;;3.00;;
735;SDS011;352;48.626;9.238;2023-07-30T11:10:44;2.80;;;2.60;;
735;SDS011;352;48.626;9.238;2023-07-30T11:13:12;3.27;;;2.97;;
735;SDS011;352;48.626;9.238;2023-07-30T11:15:40;3.10;;;2.80;;
735;SDS011;352;48.626;9.238;2023-07-30T11:18:09;3.67;;;3.27;;
735;SDS011;352;48.626;9.238;2023-07-30T11:20:36;3.37;;;2.90;;
735;SDS011;352;48.626;9.238;2023-07-30T11:23:03;2.97;;;2.70;;
735;SDS011;352;48.626;9.238;2023-07-30T11:25:45;4.37;;;4.00;;
735;SDS011;352;48.626;9.238;2023-07-30T11:28:12;3.00;;;2.80;;
735;SDS011;352;48.626;9.238;2023-07-30T11:30:38;3.20;;;2.90;;
735;SDS011;352;48.626;9.238;2023-07-30T11:33:05;3.40;;;3.10;;
735;SDS011;352;48.626;9.238;2023-07-30T11:35:33;3.50;;;3.20;;
735;SDS011;352;48.626;9.238;2023-07-30T11:38:00;5.33;;;3.63;;
735;SDS011;352;48.626;9.238;2023-07-30T11:40:27;3.73;;;3.30;;
735;SDS011;352;48.626;9.238;2023-07-30T11:42:54;4.27;;;3.27;;
735;SDS011;352;48.626;9.238;2023-07-30T11:45:22;3.93;;;3.33;;
735;SDS011;352;48.626;9.238;2023-07-30T11:47:49;5.40;;;4.43;;
735;SDS011;352;48.626;9.238;2023-07-30T11:50:17;7.70;;;5.67;;
735;SDS011;352;48.626;9.238;2023-07-30T11:52:55;4.27;;;3.83;;
735;SDS011;352;48.626;9.238;2023-07-30T11:55:23;4.80;;;3.63;;
735;SDS011;352;48.626;9.238;2023-07-30T11:57:50;7.20;;;4.20;;
735;SDS011;352;48.626;9.238;2023-07-30T12:00:20;3.60;;;3.30;;
735;SDS011;352;48.626;9.238;2023-07-30T12:02:47;4.20;;;3.90;;
735;SDS011;352;48.626;9.238;2023-07-30T12:05:14;4.17;;;3.10;;
735;SDS011;352;48.626;9.238;2023-07-30T12:07:42;3.77;;;3.13;;
735;SDS011;352;48.626;9.238;2023-07-30T12:10:14;4.13;;;3.50;;
735;SDS011;352;48.626;9.238;2023-07-30T12:12:44;4.13;;;3.53;;
735;SDS011;352;48.626;9.238;2023-07-30T12:15:11;2.90;;;2.70;;
735;SDS011;352;48.626;9.238;2023-07-30T12:17:38;3.03;;;2.83;;
735;SDS011;352;48.626;9.238;2023-07-30T12:20:05;3.20;;;3.00;;
735;SDS011;352;48.626;9.238;2023-07-30T12:22:32;3.73;;;3.43;;
735;SDS011;352;48.626;9.238;2023-07-30T12:25:00;3.07;;;2.77;;
735;SDS011;352;48.626;9.238;2023-07-30T12:27:29;3.20;;;2.90;;
735;SDS011;352;48.626;9.238;2023-07-30T12:29:56;5.60;;;3.37;;
735;SDS011;352;48.626;9.238;2023-07-30T12:32:23;3.13;;;2.83;;
735;SDS011;352;48.626;9.238;2023-07-30T12:34:53;3.17;;;2.97;;
735;SDS011;352;48.626;9.238;2023-07-30T12:37:19;3.30;;;3.10;;
735;SDS011;352;48.626;9.238;2023-07-30T12:39:46;3.07;;;2.87;;
735;SDS011;352;48.626;9.238;2023-07-30T12:42:13;3.60;;;3.30;;
735;SDS011;352;48.626;9.238;2023-07-30T12:44:41;3.17;;;2.90;;
735;SDS011;352;48.626;9.238;2023-07-30T12:47:07;3.53;;;2.93;;
735;SDS011;352;48.626;9.238;2023-07-30T12:49:34;2.87;;;2.67;;
735;SDS011;352;48.626;9.238;2023-07-30T12:52:01;2.87;;;2.67;;
735;SDS011;352;48.626;9.238;2023-07-30T12:54:27;3.33;;;3.10;;
735;SDS011;352;48.626;9.238;2023-07-30T12:56:54;4.90;;;3.10;;
735;SDS011;352;48.626;9.238;2023-07-30T12:59:21;6.57;;;3.83;;
735;SDS011;352;48.626;9.238;2023-07-30T13:01:49;4.33;;;3.10;;
735;SDS011;352;48.626;9.238;2023-07-30T13:04:15;4.03;;;3.63;;
735;SDS011;352;48.626;9.238;2023-07-30T13:06:42;3.17;;;2.97;;
735;SDS011;352;48.626;9.238;2023-07-30T13:09:09;5.10;;;3.30;;
735;SDS011;352;48.626;9.238;2023-07-30T13:11:36;3.63;;;3.33;;
735;SDS011;352;48.626;9.238;2023-07-30T13:14:03;4.20;;;3.80;;
735;SDS011;352;48.626;9.238;2023-07-30T13:16:29;3.67;;;3.37;;
735;SDS011;352;48.626;9.238;2023-07-30T13:18:58;3.20;;;3.00;;
735;SDS011;352;48.626;9.238;2023-07-30T13:21:25;5.87;;;3.80;;
735;SDS011;352;48.626;9.238;2023-07-30T13:23:52;3.43;;;3.13;;
735;SDS011;352;48.626;9.238;2023-07-30T13:26:18;3.47;;;3.10;;
735;SDS011;352;48.626;9.238;2023-07-30T13:28:45;3.23;;;3.03;;
735;SDS011;352;48.626;9.238;2023-07-30T13:31:12;3.10;;;2.80;;
735;SDS011;352;48.626;9.238;2023-07-30T13:33:39;2.97;;;2.77;;
735;SDS011;352;48.626;9.238;2023-07-30T13:36:07;3.37;;;3.03;;
735;SDS011;352;48.626;9.238;2023-07-30T13:38:34;3.60;;;3.30;;
735;SDS011;352;48.626;9.238;2023-07-30T13:41:01;3.53;;;3.23;;
735;SDS011;352;48.626;9.238;2023-07-30T13:43:28;3.10;;;2.80;;
735;SDS011;352;48.626;9.238;2023-07-30T13:45:54;3.43;;;3.13;;
735;SDS011;352;48.626;9.238;2023-07-30T13:48:22;3.33;;;3.03;;
735;SDS011;352;48.626;9.238;2023-07-30T13:50:49;3.53;;;3.27;;
735;SDS011;352;48.626;9.238;2023-07-30T13:53:18;3.20;;;3.00;;
735;SDS011;352;48.626;9.238;2023-07-30T13:55:44;3.80;;;2.70;;
735;SDS011;352;48.626;9.238;2023-07-30T13:58:11;3.33;;;3.13;;
735;SDS011;352;48.626;9.238;2023-07-30T14:00:40;3.50;;;2.97;;
735;SDS011;352;48.626;9.238;2023-07-30T14:03:07;4.23;;;2.87;;
735;SDS011;352;48.626;9.238;2023-07-30T14:05:34;2.90;;;2.70;;
735;SDS011;352;48.626;9.238;2023-07-30T14:08:01;2.80;;;2.60;;
735;SDS011;352;48.626;9.238;2023-07-30T14:10:29;3.30;;;3.00;;
735;SDS011;352;48.626;9.238;2023-07-30T14:12:56;3.60;;;3.03;;
735;SDS011;352;48.626;9.238;2023-07-30T14:15:23;3.67;;;3.20;;
735;SDS011;352;48.626;9.238;2023-07-30T14:17:50;2.70;;;2.50;;
735;SDS011;352;48.626;9.238;2023-07-30T14:20:17;3.60;;;3.20;;
735;SDS011;352;48.626;9.238;2023-07-30T14:22:44;3.10;;;2.90;;
735;SDS011;352;48.626;9.238;2023-07-30T14:25:11;5.37;;;2.90;;
735;SDS011;352;48.626;9.238;2023-07-30T14:27:39;3.30;;;3.00;;
735;SDS011;352;48.626;9.238;2023-07-30T14:30:06;5.40;;;3.07;;
735;SDS011;352;48.626;9.238;2023-07-30T14:32:34;3.23;;;3.00;;
735;SDS011;352;48.626;9.238;2023-07-30T14:35:00;2.90;;;2.70;;
735;SDS011;352;48.626;9.238;2023-07-30T14:37:27;3.10;;;2.80;;
735;SDS011;352;48.626;9.238;2023-07-30T14:39:54;3.70;;;2.93;;
735;SDS011;352;48.626;9.238;2023-07-30T14:42:20;4.90;;;2.63;;
735;SDS011;352;48.626;9.238;2023-07-30T14:44:48;3.17;;;2.90;;
735;SDS011;352;48.626;9.238;2023-07-30T14:47:15;2.70;;;2.50;;
735;SDS011;352;48.626;9.238;2023-07-30T14:49:42;3.17;;;2.77;;
735;SDS011;352;48.626;9.238;2023-07-30T14:52:09;3.00;;;2.70;;
735;SDS011;352;48.626;9.238;2023-07-30T14:54:36;2.80;;;2.40;;
735;SDS011;352;48.626;9.238;2023-07-30T14:57:03;2.60;;;2.40;;
735;SDS011;352;48.626;9.238;2023-07-30T14:59:30;4.30;;;3.27;;
735;SDS011;352;48.626;9.238;2023-07-30T15:01:58;4.60;;;2.87;;
735;SDS011;352;48.626;9.238;2023-07-30T15:04:25;4.03;;;3.00;;
735;SDS011;352;48.626;9.238;2023-07-30T15:06:51;2.73;;;2.40;;
735;SDS011;352;48.626;9.238;2023-07-30T15:09:19;5.00;;;3.30;;
735;SDS011;352;48.626;9.238;2023-07-30T15:11:45;3.00;;;2.50;;
735;SDS011;352;48.626;9.238;2023-07-30T15:14:12;3.53;;;2.57;;
735;SDS011;352;48.626;9.238;2023-07-30T15:16:39;3.53;;;2.77;;
735;SDS011;352;48.626;9.238;2023-07-30T15:19:07;2.37;;;2.23;;
735;SDS011;352;48.626;9.238;2023-07-30T15:21:33;4.37;;;2.80;;
735;SDS011;352;48.626;9.238;2023-07-30T15:24:01;3.03;;;2.40;;
735;SDS011;352;48.626;9.238;2023-07-30T15:26:28;2.30;;;2.10;;
735;SDS011;352;48.626;9.238;2023-07-30T15:28:55;2.50;;;2.30;;
735;SDS011;352;48.626;9.238;2023-07-30T15:31:22;2.40;;;2.03;;
735;SDS011;352;48.626;9.238;2023-07-30T15:33:48;2.60;;;2.40;;
735;SDS011;352;48.626;9.238;2023-07-30T15:36:19;2.87;;;2.40;;
735;SDS011;352;48.626;9.238;2023-07-30T15:38:46;2.00;;;1.90;;
735;SDS011;352;48.626;9.238;2023-07-30T15:41:16;2.43;;;2.23;;
735;SDS011;352;48.626;9.238;2023-07-30T15:43:43;3.40;;;2.37;;
735;SDS011;352;48.626;9.238;2023-07-30T15:46:09;3.17;;;2.87;;